Time;durP1;ratioP1;P1;durP2;ratioP2;P2;SDS_P1;SDS_P2;PMS_P1;PMS_P2;Temp;Humidity;BMP_temperature;BMP_pressure;BME280_temperature;BME280_humidity;BME280_pressure;Samples;Min_cycle;Max_cycle;Signal;HPM_P1;HPM_P2
2023/12/08 00:00:08;;;;;;;1999.90;999.90;;;;;;;7.42;66.65;100742.22;10419844;28;20401;-60
2023/12/08 00:05:11;;;;;;;1999.90;999.90;;;;;;;7.20;66.96;100724.09;10419752;28;20045;-60
2023/12/08 00:10:13;;;;;;;1999.90;999.90;;;;;;;7.28;66.96;100723.75;10419405;28;20502;-60
2023/12/08 00:15:15;;;;;;;1999.90;999.90;;;;;;;7.32;66.21;100709.69;10419102;28;20049;-60
2023/12/08 00:20:18;;;;;;;1999.90;999.90;;;;;;;7.12;66.65;100702.75;10418954;28;20481;-60
2023/12/08 00:25:20;;;;;;;1999.90;999.90;;;;;;;7.33;67.03;100697.50;10417939;28;20076;-60
2023/12/08 00:30:23;;;;;;;1999.90;999.90;;;;;;;7.21;65.94;100681.53;10417717;28;20088;-60
2023/12/08 00:35:25;;;;;;;1999.90;999.90;;;;;;;7.17;67.47;100658.28;10418290;28;20042;-60
2023/12/08 00:40:27;;;;;;;1999.90;999.90;;;;;;;7.20;66.03;100655.56;10418300;28;20088;-60
2023/12/08 00:45:30;;;;;;;1999.90;999.90;;;;;;;7.49;65.92;100643.78;10416752;28;20088;-60
2023/12/08 00:50:32;;;;;;;1999.90;999.90;;;;;;;7.01;65.90;100639.91;10418080;28;20059;-60
2023/12/08 00:55:35;;;;;;;1999.90;999.90;;;;;;;7.56;65.20;100633.91;10417359;28;20439;-61
2023/12/08 01:00:37;;;;;;;1999.90;999.90;;;;;;;7.27;65.64;100617.91;10417438;28;20045;-60
2023/12/08 01:05:40;;;;;;;1999.90;999.90;;;;;;;7.46;65.27;100654.34;10417362;28;20050;-60
2023/12/08 01:10:42;;;;;;;1999.90;999.90;;;;;;;7.25;65.00;100643.16;10417001;28;20049;-60
2023/12/08 01:15:45;;;;;;;1999.90;999.90;;;;;;;7.40;64.92;100639.84;10415832;28;20045;-60
2023/12/08 01:20:47;;;;;;;1999.90;999.90;;;;;;;7.61;64.49;100639.75;10416698;28;20124;-61
2023/12/08 01:25:51;;;;;;;1999.90;999.90;;;;;;;7.67;63.41;100634.25;10416668;28;20045;-60
2023/12/08 01:30:54;;;;;;;1999.90;999.90;;;;;;;7.98;63.87;100638.84;10415349;28;20129;-60
2023/12/08 01:35:56;;;;;;;1999.90;999.90;;;;;;;7.72;64.28;100642.69;10415977;28;20485;-61
2023/12/08 01:41:18;;;;;;;1999.90;999.90;;;;;;;7.80;64.61;100637.09;10415632;28;20046;-60
2023/12/08 01:46:21;;;;;;;1999.90;999.90;;;;;;;8.08;63.09;100638.38;10415769;28;20071;-60
2023/12/08 01:51:24;;;;;;;1999.90;999.90;;;;;;;7.81;63.12;100630.97;10415645;28;20061;-60
2023/12/08 01:56:27;;;;;;;1999.90;999.90;;;;;;;7.83;62.43;100618.72;10415502;28;20046;-60
2023/12/08 02:01:29;;;;;;;1999.90;999.90;;;;;;;8.14;62.08;100643.28;10414356;28;20391;-60
2023/12/08 02:06:32;;;;;;;1999.90;999.90;;;;;;;8.41;60.88;100627.19;10415280;28;20132;-61
2023/12/08 02:11:35;;;;;;;1999.90;999.90;;;;;;;8.07;62.46;100611.47;10413984;28;20049;-60
2023/12/08 02:16:45;;;;;;;1999.90;999.90;;;;;;;8.57;62.11;100601.16;10414004;28;20053;-60
2023/12/08 02:21:48;;;;;;;1999.90;999.90;;;;;;;8.32;62.52;100603.25;10415028;28;20411;-61
2023/12/08 02:26:50;;;;;;;1999.90;999.90;;;;;;;8.22;64.26;100588.13;10413900;28;20068;-60
2023/12/08 02:32:00;;;;;;;1999.90;999.90;;;;;;;8.73;63.12;100587.22;10413570;28;20100;-60
2023/12/08 02:37:03;;;;;;;1999.90;999.90;;;;;;;8.03;64.97;100576.00;10413710;28;20045;-60
2023/12/08 02:42:06;;;;;;;1999.90;999.90;;;;;;;8.21;64.97;100576.84;10413523;28;20052;-60
2023/12/08 02:47:09;;;;;;;1999.90;999.90;;;;;;;8.17;66.41;100559.69;10413588;28;20076;-60
2023/12/08 02:52:11;;;;;;;1999.90;999.90;;;;;;;8.52;63.85;100555.28;10414363;28;20058;-60
2023/12/08 02:57:13;;;;;;;1999.90;999.90;;;;;;;8.39;65.15;100549.00;10421478;28;20432;-60
2023/12/08 03:02:16;;;;;;;1999.90;999.90;;;;;;;8.54;65.57;100535.16;10422184;28;20050;-60
2023/12/08 03:07:18;;;;;;;1999.90;999.90;;;;;;;8.74;65.91;100538.47;10421863;28;20049;-60
2023/12/08 03:12:20;;;;;;;1999.90;999.90;;;;;;;7.73;69.07;100532.34;10421896;28;20103;-61
2023/12/08 03:17:23;;;;;;;1999.90;999.90;;;;;;;7.90;69.37;100518.47;10421475;28;20058;-60
2023/12/08 03:22:26;;;;;;;1999.90;999.90;;;;;;;8.15;68.46;100512.81;10421599;28;20091;-60
2023/12/08 03:27:28;;;;;;;1999.90;999.90;;;;;;;8.52;66.58;100505.69;10420430;28;20045;-60
2023/12/08 03:32:31;;;;;;;1999.90;999.90;;;;;;;8.26;68.01;100495.78;10420952;28;20128;-60
2023/12/08 03:37:34;;;;;;;1999.90;999.90;;;;;;;8.31;68.28;100480.72;10403039;28;20508;-60
2023/12/08 03:42:36;;;;;;;1999.90;999.90;;;;;;;8.47;69.14;100489.47;10420641;28;20088;-60
2023/12/08 03:47:39;;;;;;;1999.90;999.90;;;;;;;7.95;69.45;100487.78;10420375;28;20468;-60
2023/12/08 03:52:42;;;;;;;1999.90;999.90;;;;;;;7.77;70.77;100486.09;10420085;28;20053;-60
2023/12/08 03:57:44;;;;;;;1999.90;999.90;;;;;;;7.74;71.85;100491.47;10419891;28;20071;-60
2023/12/08 04:02:46;;;;;;;1999.90;999.90;;;;;;;8.43;69.18;100508.78;10419709;28;20589;-60
2023/12/08 04:07:49;;;;;;;1999.90;999.90;;;;;;;8.54;68.67;100511.69;10425782;22;20046;-63
2023/12/08 04:12:51;;;;;;;1999.90;999.90;;;;;;;8.06;71.67;100509.84;10419459;28;20053;-63
2023/12/08 04:17:53;;;;;;;1999.90;999.90;;;;;;;8.31;69.08;100499.81;10419166;28;20396;-63
2023/12/08 04:22:56;;;;;;;1999.90;999.90;;;;;;;7.99;72.25;100486.69;10419260;28;20132;-63
2023/12/08 04:27:59;;;;;;;1999.90;999.90;;;;;;;7.91;70.18;100485.41;10418866;28;20453;-63
2023/12/08 04:33:01;;;;;;;1999.90;999.90;;;;;;;7.84;72.55;100476.22;10418687;28;20392;-63
2023/12/08 04:38:04;;;;;;;1999.90;999.90;;;;;;;7.98;69.89;100486.75;10418584;28;20042;-64
2023/12/08 04:43:07;;;;;;;1999.90;999.90;;;;;;;8.23;70.53;100490.72;10418341;28;20073;-63
2023/12/08 04:48:09;;;;;;;1999.90;999.90;;;;;;;7.76;72.42;100490.47;10418243;28;20045;-63
2023/12/08 04:53:12;;;;;;;1999.90;999.90;;;;;;;7.96;72.63;100489.44;10417800;28;20484;-63
2023/12/08 04:58:16;;;;;;;1999.90;999.90;;;;;;;7.98;73.63;100489.38;10417519;28;20129;-63
2023/12/08 05:03:18;;;;;;;1999.90;999.90;;;;;;;7.52;72.99;100496.91;10417368;28;20463;-63
2023/12/08 05:08:22;;;;;;;1999.90;999.90;;;;;;;8.70;71.50;100492.56;10417034;28;20080;-63
2023/12/08 05:13:25;;;;;;;1999.90;999.90;;;;;;;6.98;74.36;100476.91;10415900;28;20579;-63
2023/12/08 05:18:28;;;;;;;1999.90;999.90;;;;;;;7.22;75.55;100480.09;10416152;28;20481;-63
2023/12/08 05:23:30;;;;;;;1999.90;999.90;;;;;;;7.74;73.98;100455.81;10415647;28;20099;-63
2023/12/08 05:28:32;;;;;;;1999.90;999.90;;;;;;;7.68;74.09;100482.19;10416635;28;20052;-63
2023/12/08 05:33:35;;;;;;;1999.90;999.90;;;;;;;7.54;75.45;100472.47;10416355;28;20543;-63
2023/12/08 05:38:37;;;;;;;1999.90;999.90;;;;;;;7.63;73.98;100471.16;10416176;28;20049;-63
2023/12/08 05:43:40;;;;;;;1999.90;999.90;;;;;;;7.20;77.24;100478.50;10415952;28;20077;-63
2023/12/08 05:48:42;;;;;;;1999.90;999.90;;;;;;;7.10;75.51;100475.47;10414663;28;20053;-63
2023/12/08 05:53:44;;;;;;;1999.90;999.90;;;;;;;6.85;76.65;100466.22;10415778;28;20064;-63
2023/12/08 05:58:47;;;;;;;1999.90;999.90;;;;;;;7.59;77.16;100475.66;10415407;28;20400;-63
2023/12/08 06:03:49;;;;;;;1999.90;999.90;;;;;;;8.14;74.44;100489.44;10415600;28;20056;-63
2023/12/08 06:08:52;;;;;;;1999.90;999.90;;;;;;;7.30;76.04;100487.53;10413937;28;20073;-63
2023/12/08 06:13:54;;;;;;;1999.90;999.90;;;;;;;7.32;77.14;100484.88;10415221;28;20189;-63
2023/12/08 06:18:56;;;;;;;1999.90;999.90;;;;;;;7.54;77.30;100482.03;10415025;28;20132;-63
2023/12/08 06:23:59;;;;;;;1999.90;999.90;;;;;;;7.96;75.15;100480.78;10415041;28;20662;-63
2023/12/08 06:29:05;;;;;;;1999.90;999.90;;;;;;;7.68;76.22;100486.56;10417562;28;20128;-63
2023/12/08 06:34:07;;;;;;;1999.90;999.90;;;;;;;7.02;77.61;100490.63;10423263;28;20100;-63
2023/12/08 06:39:18;;;;;;;1999.90;999.90;;;;;;;7.29;76.88;100488.44;10423243;28;20073;-63
2023/12/08 06:44:20;;;;;;;1999.90;999.90;;;;;;;7.46;75.09;100484.19;10421770;28;20046;-63
2023/12/08 06:49:23;;;;;;;1999.90;999.90;;;;;;;7.81;73.53;100488.47;10421673;28;20050;-63
2023/12/08 06:54:25;;;;;;;1999.90;999.90;;;;;;;8.30;72.57;100500.72;10422409;28;20057;-63
2023/12/08 06:59:28;;;;;;;1999.90;999.90;;;;;;;7.63;74.92;100500.66;10422153;28;20473;-63
2023/12/08 07:04:30;;;;;;;1999.90;999.90;;;;;;;8.26;72.54;100503.59;10422142;28;20049;-63
2023/12/08 07:09:33;;;;;;;1999.90;999.90;;;;;;;8.17;73.35;100503.16;10421771;28;20057;-63
2023/12/08 07:14:35;;;;;;;1999.90;999.90;;;;;;;7.86;77.05;100496.06;10421635;28;20484;-63
2023/12/08 07:19:38;;;;;;;1999.90;999.90;;;;;;;7.91;76.02;100486.22;10420339;28;20045;-63
2023/12/08 07:24:41;;;;;;;1999.90;999.90;;;;;;;8.47;75.58;100493.81;10421281;28;20456;-63
2023/12/08 07:29:43;;;;;;;1999.90;999.90;;;;;;;8.38;74.20;100501.16;10421185;28;20049;-63
2023/12/08 07:34:45;;;;;;;1999.90;999.90;;;;;;;7.73;76.31;100506.28;10419913;28;20397;-63
2023/12/08 07:39:48;;;;;;;1999.90;999.90;;;;;;;8.55;74.29;100502.06;10419043;28;20052;-63
2023/12/08 07:44:53;;;;;;;1999.90;999.90;;;;;;;8.52;72.11;100510.06;10419402;28;20397;-63
2023/12/08 07:49:55;;;;;;;1999.90;999.90;;;;;;;8.23;73.24;100524.63;10420605;28;20049;-63
2023/12/08 07:54:58;;;;;;;1999.90;999.90;;;;;;;8.91;71.78;100527.97;10420079;28;20546;-63
2023/12/08 08:00:00;;;;;;;1999.90;999.90;;;;;;;8.48;74.53;100539.88;10420157;28;20187;-63
2023/12/08 08:05:04;;;;;;;1999.90;999.90;;;;;;;8.52;76.21;100534.41;10418778;28;20046;-63
2023/12/08 08:10:07;;;;;;;1999.90;999.90;;;;;;;8.00;75.50;100545.75;10419495;28;20054;-63
2023/12/08 08:15:09;;;;;;;1999.90;999.90;;;;;;;8.38;75.88;100542.06;10419628;28;20051;-63
2023/12/08 08:20:12;;;;;;;1999.90;999.90;;;;;;;9.18;73.29;100547.41;10419141;28;20542;-63
2023/12/08 08:25:14;;;;;;;1999.90;999.90;;;;;;;8.63;74.71;100544.25;10419001;28;20057;-63
2023/12/08 08:30:17;;;;;;;1999.90;999.90;;;;;;;8.17;77.59;100533.63;10418669;28;20400;-63
2023/12/08 08:35:20;;;;;;;1999.90;999.90;;;;;;;8.22;79.24;100535.97;10418614;28;20116;-63
2023/12/08 08:40:23;;;;;;;1999.90;999.90;;;;;;;8.43;76.98;100534.03;10418506;28;20488;-63
2023/12/08 08:45:25;;;;;;;1999.90;999.90;;;;;;;8.92;75.70;100542.69;10418145;28;20057;-63
2023/12/08 08:50:28;;;;;;;1999.90;999.90;;;;;;;8.86;74.89;100547.38;10416554;28;20042;-63
2023/12/08 09:08:38;;;;;;;1999.90;999.90;;;;;;;8.46;79.47;100549.53;10402626;28;20045;-63
2023/12/08 09:41:13;;;;;;;1999.90;999.90;;;;;;;10.09;73.72;100561.38;10415911;28;20045;-63
2023/12/08 09:46:16;;;;;;;1999.90;999.90;;;;;;;9.32;75.09;100578.84;10416188;28;20057;-63
2023/12/08 09:51:19;;;;;;;1999.90;999.90;;;;;;;10.02;75.34;100567.91;10414724;28;20049;-64
2023/12/08 09:56:23;;;;;;;1999.90;999.90;;;;;;;9.92;75.19;100571.97;10414441;28;20092;-63
2023/12/08 10:01:26;;;;;;;1999.90;999.90;;;;;;;10.47;73.34;100565.25;10414341;28;20085;-63
2023/12/08 10:06:29;;;;;;;1999.90;999.90;;;;;;;10.62;72.57;100564.31;10415896;28;20050;-64
2023/12/08 10:11:31;;;;;;;1999.90;999.90;;;;;;;10.33;74.46;100572.16;10414618;28;20070;-63
2023/12/08 10:16:34;;;;;;;1999.90;999.90;;;;;;;10.73;72.42;100582.84;10413728;28;20056;-63
2023/12/08 10:21:36;;;;;;;1999.90;999.90;;;;;;;10.74;70.56;100581.06;10415022;28;20137;-63
2023/12/08 10:26:39;;;;;;;1999.90;999.90;;;;;;;11.05;71.99;100579.19;10415701;28;20049;-64
2023/12/08 10:31:42;;;;;;;1999.90;999.90;;;;;;;10.20;75.53;100569.44;10414447;28;20132;-63
2023/12/08 10:36:45;;;;;;;1999.90;999.90;;;;;;;11.09;73.97;100570.16;10415228;28;20049;-63
2023/12/08 10:41:51;;;;;;;1999.90;999.90;;;;;;;11.13;73.23;100575.13;10412167;28;20144;-63
2023/12/08 10:46:53;;;;;;;1999.90;999.90;;;;;;;10.79;76.37;100568.53;10409316;28;20413;-63
2023/12/08 10:51:56;;;;;;;1999.90;999.90;;;;;;;10.66;76.63;100559.75;10410461;28;20084;-63
2023/12/08 10:56:59;;;;;;;1999.90;999.90;;;;;;;10.57;76.74;100567.25;10396600;28;20052;-63
2023/12/08 11:02:02;;;;;;;1999.90;999.90;;;;;;;10.45;76.64;100564.53;10413576;28;20122;-63
2023/12/08 11:07:12;;;;;;;1999.90;999.90;;;;;;;11.03;76.84;100566.16;10414258;28;20128;-63
2023/12/08 11:12:16;;;;;;;1999.90;999.90;;;;;;;11.63;74.45;100564.97;10412918;28;20511;-63
2023/12/08 11:17:37;;;;;;;1999.90;999.90;;;;;;;12.08;75.32;100562.84;10418458;28;20081;-63
2023/12/08 11:22:40;;;;;;;1999.90;999.90;;;;;;;11.15;75.58;100573.25;10420336;28;20077;-63
2023/12/08 11:28:03;;;;;;;1999.90;999.90;;;;;;;12.79;72.83;100576.41;10420018;28;20099;-63
2023/12/08 11:33:23;;;;;;;1999.90;999.90;;;;;;;11.70;76.44;100586.34;10420152;28;20053;-63
2023/12/08 11:38:28;;;;;;;1999.90;999.90;;;;;;;12.01;74.28;100572.09;10419656;28;20100;-63
2023/12/08 11:43:31;;;;;;;1999.90;999.90;;;;;;;12.25;76.98;100579.25;10419807;28;20053;-63
2023/12/08 11:48:35;;;;;;;1999.90;999.90;;;;;;;12.85;71.62;100576.91;10420554;28;20564;-63
2023/12/08 11:53:55;;;;;;;1999.90;999.90;;;;;;;12.56;75.68;100569.28;10420413;28;20053;-63
2023/12/08 11:59:00;;;;;;;1999.90;999.90;;;;;;;12.10;77.74;100575.03;10418924;28;20485;-65
2023/12/08 12:04:02;;;;;;;1999.90;999.90;;;;;;;12.40;75.10;100575.56;10420178;28;20049;-64
2023/12/08 12:09:05;;;;;;;1999.90;999.90;;;;;;;12.87;74.04;100596.03;10418426;28;20053;-63
2023/12/08 12:14:08;;;;;;;1999.90;999.90;;;;;;;13.34;72.01;100602.34;10418569;28;20076;-63
2023/12/08 12:19:11;;;;;;;1999.90;999.90;;;;;;;13.58;70.92;100597.09;10419183;28;20087;-64
2023/12/08 12:24:13;;;;;;;1999.90;999.90;;;;;;;13.09;73.34;100596.19;10419293;28;20050;-64
2023/12/08 12:29:16;;;;;;;1999.90;999.90;;;;;;;11.86;78.07;100602.75;10418802;28;20435;-64
2023/12/08 12:34:19;;;;;;;1999.90;999.90;;;;;;;12.50;75.29;100604.66;10418727;28;20053;-65
2023/12/08 12:39:23;;;;;;;1999.90;999.90;;;;;;;13.35;73.06;100606.66;10417196;28;20119;-64
2023/12/08 12:44:47;;;;;;;1999.90;999.90;;;;;;;12.54;76.71;100605.28;10418277;28;20049;-64
2023/12/08 12:50:07;;;;;;;1999.90;999.90;;;;;;;13.16;73.78;100594.81;10417476;28;20463;-64
2023/12/08 12:55:26;;;;;;;1999.90;999.90;;;;;;;12.98;76.52;100602.22;10416710;28;20065;-64
2023/12/08 13:00:39;;;;;;;1999.90;999.90;;;;;;;13.01;74.82;100612.50;10417617;28;20057;-63
2023/12/08 13:05:59;;;;;;;1999.90;999.90;;;;;;;13.48;74.51;100628.50;10417521;28;20083;-63
2023/12/08 13:11:02;;;;;;;1999.90;999.90;;;;;;;13.24;76.09;100628.44;10417268;28;20053;-63
2023/12/08 13:16:07;;;;;;;1999.90;999.90;;;;;;;13.20;75.06;100634.88;10417050;28;20057;-63
2023/12/08 13:21:09;;;;;;;1999.90;999.90;;;;;;;13.35;75.19;100630.34;10416839;28;20049;-63
2023/12/08 13:26:12;;;;;;;1999.90;999.90;;;;;;;13.47;74.34;100632.06;10416777;28;20060;-63
2023/12/08 13:31:15;;;;;;;1999.90;999.90;;;;;;;13.14;74.46;100633.50;10416535;28;20496;-63
2023/12/08 13:36:17;;;;;;;1999.90;999.90;;;;;;;12.52;80.22;100643.94;10416364;28;20133;-64
2023/12/08 13:41:20;;;;;;;1999.90;999.90;;;;;;;13.36;76.87;100655.66;10415793;28;20076;-64
2023/12/08 13:46:22;;;;;;;1999.90;999.90;;;;;;;13.68;73.89;100663.03;10416530;28;20055;-64
2023/12/08 13:51:25;;;;;;;1999.90;999.90;;;;;;;14.07;72.63;100659.28;10415746;28;20054;-64
2023/12/08 13:56:41;;;;;;;1999.90;999.90;;;;;;;13.75;75.13;100669.50;10416089;28;20046;-64
2023/12/08 14:01:45;;;;;;;1999.90;999.90;;;;;;;13.56;75.72;100676.09;10415424;28;20404;-64
2023/12/08 14:06:47;;;;;;;1999.90;999.90;;;;;;;14.38;73.21;100679.84;10415630;28;20084;-64
2023/12/08 14:11:51;;;;;;;1999.90;999.90;;;;;;;13.43;75.23;100691.13;10415178;28;20501;-64
2023/12/08 14:16:54;;;;;;;1999.90;999.90;;;;;;;13.68;74.07;100687.53;10414977;28;20584;-64
2023/12/08 14:21:56;;;;;;;1999.90;999.90;;;;;;;14.31;70.33;100696.09;10415284;28;20057;-65
2023/12/08 14:26:59;;;;;;;1999.90;999.90;;;;;;;14.40;71.47;100694.56;10415203;28;20050;-65
2023/12/08 14:32:01;;;;;;;1999.90;999.90;;;;;;;13.84;75.85;100697.81;10414989;28;20050;-65
2023/12/08 14:37:05;;;;;;;1999.90;999.90;;;;;;;13.72;74.55;100710.06;10414552;28;20080;-64
2023/12/08 14:42:09;;;;;;;1999.90;999.90;;;;;;;13.52;76.69;100702.75;10414426;28;20053;-64
2023/12/08 14:47:12;;;;;;;1999.90;999.90;;;;;;;14.26;73.74;100703.50;10413093;28;20132;-64
2023/12/08 14:52:15;;;;;;;1999.90;999.90;;;;;;;14.08;73.73;100712.75;10420059;28;20107;-64
2023/12/08 14:57:17;;;;;;;1999.90;999.90;;;;;;;13.89;78.04;100719.38;10422259;28;20055;-64
2023/12/08 15:02:20;;;;;;;1999.90;999.90;;;;;;;13.94;74.68;100716.41;10422173;28;20080;-64
2023/12/08 15:07:23;;;;;;;1999.90;999.90;;;;;;;14.47;72.42;100724.78;10422247;28;20079;-65
2023/12/08 15:12:27;;;;;;;1999.90;999.90;;;;;;;13.84;75.99;100728.56;10421886;28;20076;-65
2023/12/08 15:17:35;;;;;;;1999.90;999.90;;;;;;;14.20;76.17;100740.81;10421541;28;20128;-64
2023/12/08 15:22:39;;;;;;;1999.90;999.90;;;;;;;13.82;75.61;100733.06;10420346;28;20484;-64
2023/12/08 15:27:42;;;;;;;1999.90;999.90;;;;;;;13.61;76.64;100748.59;10421331;28;20205;-64
2023/12/08 15:32:44;;;;;;;1999.90;999.90;;;;;;;14.07;75.06;100751.41;10420107;28;20060;-65
2023/12/08 15:37:49;;;;;;;1999.90;999.90;;;;;;;14.09;73.15;100746.88;10419635;28;20408;-64
2023/12/08 15:42:51;;;;;;;1999.90;999.90;;;;;;;13.69;75.98;100754.16;10420947;28;20054;-64
2023/12/08 15:47:53;;;;;;;1999.90;999.90;;;;;;;13.69;75.61;100741.00;10420783;28;20072;-64
2023/12/08 15:52:56;;;;;;;1999.90;999.90;;;;;;;14.08;75.35;100755.72;10420335;28;20053;-64
2023/12/08 15:57:58;;;;;;;1999.90;999.90;;;;;;;14.47;74.80;100766.06;10420298;28;20045;-64
2023/12/08 16:03:01;;;;;;;1999.90;999.90;;;;;;;13.54;75.46;100769.25;10418528;28;20045;-64
2023/12/08 16:08:04;;;;;;;1999.90;999.90;;;;;;;13.74;76.08;100788.88;10417781;28;20053;-64
2023/12/08 16:13:06;;;;;;;1999.90;999.90;;;;;;;14.17;74.17;100793.72;10419562;28;20411;-64
2023/12/08 16:18:08;;;;;;;1999.90;999.90;;;;;;;13.62;77.31;100780.06;10419537;28;20073;-64
2023/12/08 16:23:11;;;;;;;1999.90;999.90;;;;;;;14.60;71.82;100789.75;10425204;22;20056;-64
2023/12/08 16:28:13;;;;;;;1999.90;999.90;;;;;;;13.75;74.04;100793.19;10417676;28;20041;-64
2023/12/08 16:33:16;;;;;;;1999.90;999.90;;;;;;;13.75;75.56;100798.44;10418803;28;20051;-64
2023/12/08 16:38:18;;;;;;;1999.90;999.90;;;;;;;14.11;75.10;100805.50;10418576;28;20057;-64
2023/12/08 16:43:21;;;;;;;1999.90;999.90;;;;;;;14.18;74.40;100812.97;10418679;28;20073;-64
2023/12/08 16:48:23;;;;;;;1999.90;999.90;;;;;;;14.12;73.46;100817.72;10418219;28;20503;-64
2023/12/08 16:53:25;;;;;;;1999.90;999.90;;;;;;;13.58;77.13;100812.78;10417969;28;20389;-64
2023/12/08 16:58:28;;;;;;;1999.90;999.90;;;;;;;13.62;77.39;100814.28;10417779;28;20053;-64
2023/12/08 17:03:30;;;;;;;1999.90;999.90;;;;;;;13.95;74.64;100818.09;10417530;28;20076;-64
2023/12/08 17:08:33;;;;;;;1999.90;999.90;;;;;;;13.77;77.10;100819.38;10416256;28;20497;-64
2023/12/08 17:13:35;;;;;;;1999.90;999.90;;;;;;;13.62;74.94;100818.69;10415378;28;20073;-64
2023/12/08 17:18:37;;;;;;;1999.90;999.90;;;;;;;13.73;77.18;100824.91;10417228;28;20059;-64
2023/12/08 17:23:40;;;;;;;1999.90;999.90;;;;;;;13.61;77.59;100817.84;10416834;28;20061;-65
2023/12/08 17:28:42;;;;;;;1999.90;999.90;;;;;;;13.38;79.46;100825.53;10416592;28;20369;-64
2023/12/08 17:33:45;;;;;;;1999.90;999.90;;;;;;;13.68;74.71;100820.88;10415586;28;20059;-64
2023/12/08 17:38:47;;;;;;;1999.90;999.90;;;;;;;12.79;79.83;100817.25;10416158;28;20107;-64
2023/12/08 17:43:50;;;;;;;1999.90;999.90;;;;;;;13.74;77.78;100828.34;10416364;28;20121;-64
2023/12/08 17:48:52;;;;;;;1999.90;999.90;;;;;;;13.62;75.49;100837.13;10416045;28;20049;-64
2023/12/08 17:53:54;;;;;;;1999.90;999.90;;;;;;;13.74;76.09;100834.44;10414604;28;20136;-64
2023/12/08 17:58:57;;;;;;;1999.90;999.90;;;;;;;13.46;75.83;100838.16;10415755;28;20128;-64
2023/12/08 18:04:00;;;;;;;1999.90;999.90;;;;;;;13.45;79.25;100847.00;10415500;28;20160;-64
2023/12/08 18:09:04;;;;;;;1999.90;999.90;;;;;;;13.97;76.39;100839.03;10415332;28;20448;-64
2023/12/08 18:14:07;;;;;;;1999.90;999.90;;;;;;;13.49;78.65;100847.63;10415375;28;20049;-64
2023/12/08 18:19:09;;;;;;;1999.90;999.90;;;;;;;13.09;79.61;100853.75;10415148;28;20567;-64
2023/12/08 18:24:16;;;;;;;1999.90;999.90;;;;;;;13.52;78.54;100831.66;10419687;28;20066;-64
2023/12/08 18:29:18;;;;;;;1999.90;999.90;;;;;;;13.85;74.80;100825.81;10428718;28;20492;-64
2023/12/08 18:34:20;;;;;;;1999.90;999.90;;;;;;;13.48;77.81;100835.41;10428723;28;20059;-64
2023/12/08 18:39:23;;;;;;;1999.90;999.90;;;;;;;13.55;75.84;100834.06;10428548;28;20103;-64
2023/12/08 18:44:25;;;;;;;1999.90;999.90;;;;;;;13.40;76.21;100845.63;10428420;28;20095;-64
2023/12/08 18:49:28;;;;;;;1999.90;999.90;;;;;;;12.95;78.82;100853.88;10427203;28;20060;-64
2023/12/08 18:54:30;;;;;;;1999.90;999.90;;;;;;;13.44;75.47;100847.09;10428161;28;20056;-64
2023/12/08 18:59:33;;;;;;;1999.90;999.90;;;;;;;13.68;78.04;100850.66;10428137;28;20057;-64
2023/12/08 19:04:35;;;;;;;1999.90;999.90;;;;;;;13.93;75.52;100843.69;10428043;28;20053;-64
2023/12/08 19:09:39;;;;;;;1999.90;999.90;;;;;;;13.56;77.59;100847.09;10428149;28;20053;-64
2023/12/08 19:14:42;;;;;;;1999.90;999.90;;;;;;;13.37;76.33;100862.47;10427827;28;20124;-64
2023/12/08 19:19:44;;;;;;;1999.90;999.90;;;;;;;14.13;75.87;100861.53;10427761;28;20408;-65
2023/12/08 19:24:46;;;;;;;1999.90;999.90;;;;;;;13.93;77.56;100849.78;10427571;28;20054;-64
2023/12/08 19:29:49;;;;;;;1999.90;999.90;;;;;;;13.14;81.16;100845.56;10427521;28;20073;-64
2023/12/08 19:34:51;;;;;;;1999.90;999.90;;;;;;;13.52;77.86;100852.69;10424674;28;20056;-64
2023/12/08 19:39:54;;;;;;;1999.90;999.90;;;;;;;13.26;78.45;100855.25;10420864;28;20052;-64
2023/12/08 19:44:56;;;;;;;1999.90;999.90;;;;;;;13.70;76.61;100848.78;10420638;28;20481;-64
2023/12/08 19:49:58;;;;;;;1999.90;999.90;;;;;;;13.18;79.71;100871.56;10420505;28;20053;-64
2023/12/08 19:55:01;;;;;;;1999.90;999.90;;;;;;;13.24;79.89;100869.47;10420269;28;20428;-65
2023/12/08 20:00:04;;;;;;;1999.90;999.90;;;;;;;13.36;76.89;100879.19;10420289;28;20053;-64
2023/12/08 20:05:08;;;;;;;1999.90;999.90;;;;;;;13.44;76.56;100881.28;10420062;28;20060;-64
2023/12/08 20:10:10;;;;;;;1999.90;999.90;;;;;;;13.26;77.34;100873.66;10419920;28;20046;-64
2023/12/08 20:15:13;;;;;;;1999.90;999.90;;;;;;;13.70;76.06;100872.47;10419547;28;20078;-64
2023/12/08 20:20:19;;;;;;;1999.90;999.90;;;;;;;13.75;73.38;100869.47;10419603;28;20057;-64
2023/12/08 20:25:21;;;;;;;1999.90;999.90;;;;;;;13.86;76.91;100866.94;10418822;28;20511;-64
2023/12/08 20:30:23;;;;;;;1999.90;999.90;;;;;;;13.48;76.07;100862.59;10419092;28;20052;-64
2023/12/08 20:35:26;;;;;;;1999.90;999.90;;;;;;;13.78;75.83;100869.28;10417752;28;20099;-64
2023/12/08 20:40:28;;;;;;;1999.90;999.90;;;;;;;12.74;78.89;100862.22;10418526;28;20053;-64
2023/12/08 20:45:30;;;;;;;1999.90;999.90;;;;;;;12.97;78.00;100870.38;10418616;28;20053;-64
2023/12/08 20:50:33;;;;;;;1999.90;999.90;;;;;;;13.20;78.44;100877.56;10417388;28;20452;-64
2023/12/08 20:55:35;;;;;;;1999.90;999.90;;;;;;;12.91;79.32;100874.25;10416857;28;20200;-64
2023/12/08 21:00:40;;;;;;;1999.90;999.90;;;;;;;12.90;77.88;100872.56;10417838;28;20046;-64
2023/12/08 21:05:43;;;;;;;1999.90;999.90;;;;;;;13.64;76.81;100886.03;10417603;28;20103;-64
2023/12/08 21:10:45;;;;;;;1999.90;999.90;;;;;;;13.61;76.71;100888.88;10416469;28;20045;-64
2023/12/08 21:15:48;;;;;;;1999.90;999.90;;;;;;;13.35;76.04;100890.66;10416101;28;20071;-64
2023/12/08 21:20:50;;;;;;;1999.90;999.90;;;;;;;13.06;80.00;100901.28;10416013;28;20079;-64
2023/12/08 21:25:53;;;;;;;1999.90;999.90;;;;;;;13.28;78.35;100890.19;10416676;28;20057;-64
2023/12/08 21:30:55;;;;;;;1999.90;999.90;;;;;;;13.72;76.08;100896.03;10416663;28;20045;-64
2023/12/08 21:35:58;;;;;;;1999.90;999.90;;;;;;;13.58;75.67;100891.69;10416352;28;20517;-64
2023/12/08 21:41:00;;;;;;;1999.90;999.90;;;;;;;13.17;77.95;100893.53;10416150;28;20125;-64
2023/12/08 21:46:02;;;;;;;1999.90;999.90;;;;;;;13.26;75.29;100893.84;10416248;28;20057;-64
2023/12/08 21:51:05;;;;;;;1999.90;999.90;;;;;;;13.27;77.11;100895.56;10415876;28;20552;-64
2023/12/08 21:56:07;;;;;;;1999.90;999.90;;;;;;;12.42;79.81;100901.91;10415963;28;20057;-64
2023/12/08 22:01:10;;;;;;;1999.90;999.90;;;;;;;12.98;76.47;100896.53;10415268;28;20396;-64
2023/12/08 22:06:12;;;;;;;1999.90;999.90;;;;;;;13.44;76.27;100883.94;10414369;28;20045;-64
2023/12/08 22:11:14;;;;;;;1999.90;999.90;;;;;;;12.63;80.21;100886.53;10414428;28;20046;-64
2023/12/08 22:16:21;;;;;;;1999.90;999.90;;;;;;;12.70;80.10;100887.00;10415221;28;20409;-64
2023/12/08 22:21:24;;;;;;;1999.90;999.90;;;;;;;12.70;78.52;100894.88;10415121;28;20525;-65
2023/12/08 22:26:27;;;;;;;1999.90;999.90;;;;;;;12.02;80.63;100900.91;10414789;28;20493;-64
2023/12/08 22:31:29;;;;;;;1999.90;999.90;;;;;;;12.23;79.87;100901.38;10413700;28;20552;-64
2023/12/08 22:36:31;;;;;;;1999.90;999.90;;;;;;;12.87;75.84;100896.41;10414999;28;20146;-64
2023/12/08 22:41:34;;;;;;;1999.90;999.90;;;;;;;13.13;75.29;100907.84;10414714;28;20392;-64